createdAt,value
2018-12-04T00:00:25.235Z,32.5
2018-12-04T00:01:25.235Z,32
2018-12-04T00:02:25.344Z,32
2018-12-04T00:03:25.322Z,32.4
2018-12-04T00:04:25.247Z,32.3
2018-12-04T00:05:25.218Z,32.4
2018-12-04T00:06:25.245Z,32.5
2018-12-04T00:07:25.255Z,33.2
2018-12-04T00:08:25.301Z,33.7
2018-12-04T00:09:25.243Z,33.8
2018-12-04T00:10:25.221Z,33.6
2018-12-04T00:11:25.244Z,33.8
2018-12-04T00:12:25.238Z,34.2
2018-12-04T00:13:25.305Z,33.8
2018-12-04T00:14:26.070Z,33.5
2018-12-04T00:15:25.243Z,33.2
2018-12-04T00:16:25.760Z,33
2018-12-04T00:17:25.241Z,32.9
2018-12-04T00:18:25.307Z,32.3
2018-12-04T00:19:25.314Z,31.5
2018-12-04T00:20:25.252Z,31.1
2018-12-04T00:21:25.233Z,31.1
2018-12-04T00:22:25.241Z,30.7
2018-12-04T00:23:25.236Z,30.4
2018-12-04T00:24:25.311Z,31.1
2018-12-04T00:25:25.324Z,31.5
2018-12-04T00:26:25.222Z,31.9
2018-12-04T00:27:25.236Z,31.6
2018-12-04T00:28:25.302Z,32.3
2018-12-04T00:29:25.233Z,33.3
2018-12-04T00:30:25.310Z,33.4
2018-12-04T00:31:25.232Z,33.5
2018-12-04T00:32:25.221Z,33.3
2018-12-04T00:33:25.289Z,33.9
2018-12-04T00:34:25.237Z,35
2018-12-04T00:35:25.222Z,36
2018-12-04T00:36:25.319Z,36
2018-12-04T00:37:25.223Z,35.6
2018-12-04T00:38:25.216Z,36.2
2018-12-04T00:39:25.237Z,36.7
2018-12-04T00:40:25.229Z,37
2018-12-04T00:41:25.305Z,36.8
2018-12-04T00:42:25.236Z,36.4
2018-12-04T00:43:25.217Z,36.2
2018-12-04T00:44:25.239Z,35.8
2018-12-04T00:45:25.233Z,36
2018-12-04T00:46:25.286Z,36
2018-12-04T00:47:25.230Z,35.1
2018-12-04T00:48:25.212Z,34
2018-12-04T00:49:25.219Z,33.2
2018-12-04T00:50:25.303Z,32.6
2018-12-04T00:51:25.232Z,33.2
2018-12-04T00:52:25.221Z,33.2
2018-12-04T00:53:25.228Z,32.8
2018-12-04T00:54:25.213Z,32.1
2018-12-04T00:55:25.353Z,32
2018-12-04T00:56:25.234Z,31.7
2018-12-04T00:57:25.227Z,31.5
2018-12-04T00:58:25.226Z,31.6
2018-12-04T00:59:25.205Z,31.5
2018-12-04T01:00:25.287Z,31.7
2018-12-04T01:01:25.301Z,32
2018-12-04T01:02:25.227Z,32.4
2018-12-04T01:03:25.231Z,32
2018-12-04T01:04:25.222Z,31.5
2018-12-04T01:05:25.217Z,31.4
2018-12-04T01:06:25.293Z,31.4
2018-12-04T01:07:25.228Z,31.3
2018-12-04T01:08:25.223Z,31.5
2018-12-04T01:09:25.267Z,31.8
2018-12-04T01:10:25.211Z,31.4
2018-12-04T01:11:25.300Z,30.5
2018-12-04T01:12:25.228Z,30.4
2018-12-04T01:13:25.219Z,30.1
2018-12-04T01:14:25.297Z,29.2
2018-12-04T01:15:25.211Z,29.4
2018-12-04T01:16:25.207Z,29.8
2018-12-04T01:17:25.222Z,29.5
2018-12-04T01:18:25.276Z,29.3
2018-12-04T01:19:25.220Z,29.7
2018-12-04T01:20:25.216Z,29.5
2018-12-04T01:21:25.197Z,28.9
2018-12-04T01:22:25.286Z,29.2
2018-12-04T01:23:25.221Z,28.9
2018-12-04T01:24:25.226Z,28.8
2018-12-04T01:25:25.283Z,28.9
2018-12-04T01:26:25.275Z,28.5
2018-12-04T01:27:25.218Z,29.3
2018-12-04T01:28:25.212Z,29.3
2018-12-04T01:29:25.210Z,28.6
2018-12-04T01:30:25.289Z,28.5
2018-12-04T01:31:25.280Z,29.1
2018-12-04T01:32:25.195Z,29.5
2018-12-04T01:33:25.214Z,29.2
2018-12-04T01:34:25.281Z,28.5
2018-12-04T01:35:25.222Z,28.9
2018-12-04T01:36:25.286Z,29.5
2018-12-04T01:37:25.200Z,29.7
2018-12-04T01:38:25.216Z,29.1
2018-12-04T01:39:25.284Z,29.8
2018-12-04T01:40:25.216Z,29.8
2018-12-04T01:41:25.284Z,29.7
2018-12-04T01:42:25.211Z,30.6
2018-12-04T01:43:25.212Z,30.3
2018-12-04T01:44:25.287Z,29.7
2018-12-04T01:45:25.271Z,30.2
2018-12-04T01:46:25.223Z,29.2
2018-12-04T01:47:25.293Z,28.9
2018-12-04T01:48:25.194Z,28.9
2018-12-04T01:49:25.216Z,28.6
2018-12-04T01:50:25.212Z,29
2018-12-04T01:51:25.219Z,29.6
2018-12-04T01:52:25.290Z,29.4
2018-12-04T01:53:25.281Z,29.5
2018-12-04T01:54:25.245Z,29.1
2018-12-04T01:55:25.209Z,29
2018-12-04T01:56:25.210Z,28.9
2018-12-04T01:57:25.272Z,28.7
2018-12-04T01:58:25.276Z,29
2018-12-04T01:59:25.193Z,29.5
2018-12-04T02:00:25.211Z,29.4
2018-12-04T02:01:25.203Z,30.2
2018-12-04T02:02:25.211Z,30.6
2018-12-04T02:03:25.208Z,30.9
2018-12-04T02:04:25.259Z,31.3
2018-12-04T02:05:25.202Z,31.6
2018-12-04T02:06:25.216Z,31.8
2018-12-04T02:07:25.202Z,33
2018-12-04T02:08:25.198Z,33.1
2018-12-04T02:09:25.203Z,33.2
2018-12-04T02:10:25.188Z,33.1
2018-12-04T02:11:25.209Z,33.3
2018-12-04T02:12:25.202Z,33.9
2018-12-04T02:13:25.274Z,34.5
2018-12-04T02:14:25.200Z,35
2018-12-04T02:15:25.185Z,35.9
2018-12-04T02:16:25.188Z,36.1
2018-12-04T02:17:25.196Z,36.1
2018-12-04T02:18:25.271Z,35.6
2018-12-04T02:19:25.200Z,34.8
2018-12-04T02:20:25.203Z,34.8
2018-12-04T02:21:25.176Z,34.1
2018-12-04T02:22:25.276Z,33.5
2018-12-04T02:23:25.195Z,32.6
2018-12-04T02:24:25.204Z,32.5
2018-12-04T02:25:25.260Z,31.6
2018-12-04T02:26:25.185Z,30.1
2018-12-04T02:27:25.208Z,30.1
2018-12-04T02:28:25.194Z,29.1
2018-12-04T02:29:25.198Z,28.9
2018-12-04T02:30:25.275Z,28.9
2018-12-04T02:31:25.201Z,28.8
2018-12-04T02:32:25.181Z,28.6
2018-12-04T02:33:25.251Z,29.3
2018-12-04T02:34:25.198Z,30.2
2018-12-04T02:35:25.245Z,31.5
2018-12-04T02:36:25.189Z,33
2018-12-04T02:37:25.176Z,34.3
2018-12-04T02:38:25.178Z,37.8
2018-12-04T02:39:25.198Z,40.2
2018-12-04T02:40:25.265Z,42.6
2018-12-04T02:41:25.185Z,43.6
2018-12-04T02:42:25.192Z,45.1
2018-12-04T02:43:25.223Z,47.2
2018-12-04T02:44:25.202Z,48.3
2018-12-04T02:45:25.198Z,49.5
2018-12-04T02:46:25.193Z,49.7
2018-12-04T02:47:25.279Z,50.5
2018-12-04T02:48:25.173Z,51.3
2018-12-04T02:49:25.194Z,51.9
2018-12-04T02:50:25.186Z,53.1
2018-12-04T02:51:25.248Z,54.5
2018-12-04T02:52:25.187Z,55.3
2018-12-04T02:53:25.199Z,55.9
2018-12-04T02:54:25.173Z,56.5
2018-12-04T02:55:25.281Z,56.2
2018-12-04T02:56:25.193Z,57.1
2018-12-04T02:57:25.194Z,57.4
2018-12-04T02:58:25.184Z,57.5
2018-12-04T02:59:25.172Z,58.2
2018-12-04T03:00:25.258Z,58.1
2018-12-04T03:01:25.191Z,58.6
2018-12-04T03:02:25.184Z,59.1
2018-12-04T03:03:25.194Z,58.8
2018-12-04T03:04:25.178Z,58.4
2018-12-04T03:05:25.187Z,58
2018-12-04T03:06:25.190Z,57.5
2018-12-04T03:07:25.259Z,57.4
2018-12-04T03:08:25.183Z,57.4
2018-12-04T03:09:25.183Z,56.8
2018-12-04T03:10:25.178Z,56.8
2018-12-04T03:11:25.191Z,57.1
2018-12-04T03:12:25.270Z,58.1
2018-12-04T03:13:25.184Z,59.6
2018-12-04T03:14:25.186Z,60.6
2018-12-04T03:15:25.167Z,61.3
2018-12-04T03:16:25.184Z,61.8
2018-12-04T03:17:25.249Z,61.1
2018-12-04T03:18:25.191Z,60.9
2018-12-04T03:19:25.182Z,60.8
2018-12-04T03:20:25.243Z,60.7
2018-12-04T03:21:25.229Z,62.3
2018-12-04T03:22:25.185Z,62.9
2018-12-04T03:23:25.172Z,63.9
2018-12-04T03:24:25.180Z,64.1
2018-12-04T03:25:25.257Z,64.2
2018-12-04T03:26:25.174Z,64
2018-12-04T03:27:25.181Z,65.1
2018-12-04T03:28:25.174Z,64.6
2018-12-04T03:29:25.174Z,65.7
2018-12-04T03:30:25.248Z,67.2
2018-12-04T03:31:25.171Z,68.1
2018-12-04T03:32:25.170Z,68.2
2018-12-04T03:33:25.198Z,68.4
2018-12-04T03:34:25.185Z,68.8
2018-12-04T03:35:25.241Z,69.6
2018-12-04T03:36:25.177Z,70.9
2018-12-04T03:37:25.167Z,71.1
2018-12-04T03:38:25.180Z,72.6
2018-12-04T03:39:25.227Z,73.7
2018-12-04T03:40:25.233Z,73.5
2018-12-04T03:41:25.181Z,73.6
2018-12-04T03:42:25.254Z,73.7
2018-12-04T03:43:25.173Z,74.5
2018-12-04T03:44:25.171Z,73.6
2018-12-04T03:45:25.245Z,73.3
2018-12-04T03:46:25.236Z,73.7
2018-12-04T03:47:25.173Z,73.6
2018-12-04T03:48:25.153Z,74.2
2018-12-04T03:49:25.175Z,72.8
2018-12-04T03:50:25.239Z,72.4
2018-12-04T03:51:25.230Z,71.3
2018-12-04T03:52:25.170Z,70.1
2018-12-04T03:53:25.150Z,68.6
2018-12-04T03:54:25.160Z,68
2018-12-04T03:55:25.172Z,66.2
2018-12-04T03:56:25.241Z,64.5
2018-12-04T03:57:25.243Z,62.7
2018-12-04T03:58:25.163Z,60.8
2018-12-04T03:59:25.154Z,59.8
2018-12-04T04:00:25.171Z,59.7
2018-12-04T04:01:25.168Z,59
2018-12-04T04:02:25.234Z,58.8
2018-12-04T04:03:25.167Z,59
2018-12-04T04:04:25.158Z,58.7
2018-12-04T04:05:25.145Z,59
2018-12-04T04:06:25.162Z,59.7
2018-12-04T04:07:25.212Z,60.3
2018-12-04T04:08:25.171Z,61
2018-12-04T04:09:25.244Z,62.1
2018-12-04T04:10:25.143Z,62.5
2018-12-04T04:11:25.166Z,63.1
2018-12-04T04:12:25.159Z,62.2
2018-12-04T04:13:25.168Z,61.9
2018-12-04T04:14:25.229Z,62.8
2018-12-04T04:15:25.147Z,63
2018-12-04T04:16:25.183Z,62.3
2018-12-04T04:17:25.168Z,61.5
2018-12-04T04:18:25.241Z,60.4
2018-12-04T04:19:25.161Z,59.6
2018-12-04T04:20:25.242Z,58.4
2018-12-04T04:21:25.145Z,56.9
2018-12-04T04:22:25.154Z,55.6
2018-12-04T04:23:25.158Z,54.5
2018-12-04T04:24:25.155Z,53.9
2018-12-04T04:25:25.239Z,53
2018-12-04T04:26:25.161Z,51.7
2018-12-04T04:27:25.135Z,50.5
2018-12-04T04:28:25.145Z,49.8
2018-12-04T04:29:25.158Z,49
2018-12-04T04:30:25.220Z,48.8
2018-12-04T04:31:25.158Z,49.9
2018-12-04T04:32:25.204Z,49.5
2018-12-04T04:33:25.159Z,49.2
2018-12-04T04:34:25.155Z,49.4
2018-12-04T04:35:25.145Z,50.2
2018-12-04T04:36:25.154Z,50.8
2018-12-04T04:37:25.138Z,51.2
2018-12-04T04:38:25.158Z,52
2018-12-04T04:39:25.157Z,53
2018-12-04T04:40:25.236Z,54.3
2018-12-04T04:41:25.151Z,56.2
2018-12-04T04:42:25.143Z,58
2018-12-04T04:43:25.138Z,58.7
2018-12-04T04:44:25.210Z,59.4
2018-12-04T04:45:25.149Z,59.5
2018-12-04T04:46:25.159Z,60
2018-12-04T04:47:25.150Z,60.5
2018-12-04T04:48:25.203Z,59.9
2018-12-04T04:49:25.151Z,59.8
2018-12-04T04:50:25.216Z,59.4
2018-12-04T04:51:25.151Z,58.8
2018-12-04T04:52:25.201Z,57.3
2018-12-04T04:53:25.139Z,56.5
2018-12-04T04:54:25.146Z,55.7
2018-12-04T04:55:25.148Z,55
2018-12-04T04:56:25.210Z,54.2
2018-12-04T04:57:25.144Z,53.5
2018-12-04T04:58:25.146Z,52.8
2018-12-04T04:59:25.123Z,52.4
2018-12-04T05:00:25.892Z,51.5
2018-12-04T05:01:27.449Z,49.6
2018-12-04T05:02:26.214Z,48.1
2018-12-04T05:08:49.799Z,3.8
2018-12-04T05:14:37.259Z,3
2018-12-04T05:17:36.059Z,2.9
2018-12-04T05:18:40.343Z,7.4
2018-12-04T05:19:40.348Z,9.6
2018-12-04T05:20:40.401Z,12.9
2018-12-04T05:21:40.323Z,16.7
2018-12-04T05:22:40.343Z,20.4
2018-12-04T05:23:40.342Z,24.4
2018-12-04T05:24:40.402Z,27.4
2018-12-04T05:25:40.336Z,29.5
2018-12-04T05:26:40.317Z,30.5
2018-12-04T05:27:40.336Z,32.9
2018-12-04T05:28:40.412Z,36.3
2018-12-04T05:29:40.408Z,38.1
2018-12-04T05:30:40.335Z,39.1
2018-12-04T05:31:40.330Z,39.2
2018-12-04T05:32:40.340Z,39.5
2018-12-04T05:33:40.332Z,40.6
2018-12-04T05:34:40.418Z,41.8
2018-12-04T05:35:40.329Z,42.7
2018-12-04T05:36:40.330Z,44
2018-12-04T05:37:40.381Z,44.6
2018-12-04T05:38:40.333Z,45
2018-12-04T05:39:40.346Z,44.8
2018-12-04T05:40:40.339Z,44.4
2018-12-04T05:41:40.329Z,43.9
2018-12-04T05:42:40.380Z,44.5
2018-12-04T05:43:40.324Z,44.8
2018-12-04T05:44:40.336Z,44.3
2018-12-04T05:45:40.341Z,44.5
2018-12-04T05:46:40.335Z,44.1
2018-12-04T05:47:40.384Z,44.2
2018-12-04T05:48:40.331Z,43.8
2018-12-04T05:49:40.332Z,43
2018-12-04T05:50:40.329Z,42.9
2018-12-04T05:51:40.329Z,42.9
2018-12-04T05:52:40.382Z,43.5
2018-12-04T05:53:40.306Z,43.5
2018-12-04T05:54:40.326Z,43.2
2018-12-04T05:55:40.394Z,42.9
2018-12-04T05:56:40.329Z,42.4
2018-12-04T05:57:40.395Z,42.3
2018-12-04T05:58:40.318Z,42.5
2018-12-04T05:59:40.310Z,42.8
2018-12-04T06:00:40.396Z,42.6
2018-12-04T06:01:40.331Z,42.4
2018-12-04T06:02:40.325Z,42.3
2018-12-04T06:03:40.877Z,42.9
2018-12-04T06:04:40.308Z,42.7
2018-12-04T06:05:40.320Z,42.4
2018-12-04T06:06:40.315Z,42.8
2018-12-04T06:07:40.387Z,42.7
2018-12-04T06:08:40.326Z,43.1
2018-12-04T06:09:40.314Z,42.8
2018-12-04T06:10:40.307Z,42
2018-12-04T06:11:40.329Z,41.9
2018-12-04T06:12:40.374Z,41.8
2018-12-04T06:13:40.300Z,41.4
2018-12-04T06:14:40.387Z,40.6
2018-12-04T06:15:40.294Z,40.5
2018-12-04T06:16:40.388Z,40.8
2018-12-04T06:17:40.321Z,40.5
2018-12-04T06:18:40.316Z,40
2018-12-04T06:19:40.310Z,39.8
2018-12-04T06:20:40.306Z,39.8
2018-12-04T06:21:40.371Z,39.7
2018-12-04T06:22:40.314Z,39.7
2018-12-04T06:23:40.314Z,40.3
2018-12-04T06:24:40.321Z,41
2018-12-04T06:25:40.315Z,41.7
2018-12-04T06:26:40.374Z,42.6
2018-12-04T06:27:40.355Z,43.6
2018-12-04T06:28:40.300Z,45
2018-12-04T06:29:40.310Z,45.3
2018-12-04T06:30:40.306Z,45.3
2018-12-04T06:31:40.376Z,46.8
2018-12-04T06:32:40.306Z,48.5
2018-12-04T06:33:40.307Z,50.4
2018-12-04T06:34:40.353Z,52.7
2018-12-04T06:35:40.318Z,54.3
2018-12-04T06:36:40.368Z,55.3
2018-12-04T06:37:40.296Z,55.4
2018-12-04T06:38:40.309Z,55.5
2018-12-04T06:39:40.299Z,55.6
2018-12-04T06:40:40.389Z,55.8
2018-12-04T06:41:40.450Z,56.2
2018-12-04T06:42:40.290Z,55.8
2018-12-04T06:43:40.356Z,55.1
2018-12-04T06:44:46.604Z,54.3
2018-12-04T06:45:40.356Z,53.9
2018-12-04T06:46:40.535Z,54
2018-12-04T06:47:41.061Z,52.9
2018-12-04T06:48:40.440Z,52.2
2018-12-04T06:49:40.357Z,51.5
2018-12-04T06:50:40.343Z,50.4
2018-12-04T06:51:40.335Z,48.5
2018-12-04T06:52:42.552Z,46.6
2018-12-04T06:53:40.536Z,45.1
2018-12-04T06:54:42.126Z,43.1
2018-12-04T06:55:40.343Z,41.8
2018-12-04T06:56:40.364Z,40.7
2018-12-04T06:57:40.528Z,40.1
2018-12-04T06:58:40.347Z,40.2
2018-12-04T06:59:40.359Z,40.8
2018-12-04T07:00:40.374Z,41.1
2018-12-04T07:01:40.344Z,40.8
2018-12-04T07:02:40.395Z,40.5
2018-12-04T07:03:40.435Z,40.5
2018-12-04T07:04:40.355Z,40.4
2018-12-04T07:05:40.368Z,41.1
2018-12-04T07:06:40.354Z,40.5
2018-12-04T07:07:40.453Z,40
2018-12-04T07:09:44.161Z,2.9
2018-12-04T07:10:44.263Z,5.9
2018-12-04T07:11:44.236Z,9.1
2018-12-04T07:12:44.251Z,11.5
2018-12-04T07:13:44.164Z,13.6
2018-12-04T07:14:44.192Z,16.1
2018-12-04T07:15:45.306Z,18.1
2018-12-04T07:16:44.239Z,20
2018-12-04T07:17:44.253Z,22
2018-12-04T07:18:44.285Z,23.3
2018-12-04T07:19:44.313Z,24
2018-12-04T07:20:44.194Z,25.4
2018-12-04T07:21:44.403Z,26.1
2018-12-04T07:22:44.207Z,27.9
2018-12-04T07:23:44.256Z,29.7
2018-12-04T07:24:44.190Z,30.4
2018-12-04T07:25:44.302Z,30.8
2018-12-04T07:26:44.204Z,31.7
2018-12-04T07:27:44.266Z,33.2
2018-12-04T07:28:44.342Z,34
2018-12-04T07:29:44.208Z,34.3
2018-12-04T07:30:44.249Z,35
2018-12-04T07:31:44.122Z,35.2
2018-12-04T07:32:44.112Z,36.2
2018-12-04T07:33:44.196Z,37.4
2018-12-04T07:34:44.200Z,38.1
2018-12-04T07:35:44.128Z,38.9
2018-12-04T07:36:44.134Z,39.4
2018-12-04T07:37:44.166Z,39.9
2018-12-04T07:38:44.124Z,39.5
2018-12-04T07:39:44.129Z,39.4
2018-12-04T07:40:44.189Z,39.3
2018-12-04T07:41:44.153Z,39.6
2018-12-04T07:42:44.110Z,40.4
2018-12-04T07:43:44.129Z,40.7
2018-12-04T07:44:44.126Z,40.9
2018-12-04T07:45:44.185Z,41.3
2018-12-04T07:46:44.179Z,42.1
2018-12-04T07:47:44.130Z,42.4
2018-12-04T07:48:44.112Z,42.6
2018-12-04T07:49:44.129Z,42.7
2018-12-04T07:50:44.195Z,43.2
2018-12-04T07:51:44.127Z,43.6
2018-12-04T07:52:44.119Z,43.8
2018-12-04T07:53:44.191Z,44.6
2018-12-04T07:54:44.113Z,45.1
2018-12-04T07:55:44.127Z,45.6
2018-12-04T07:56:44.115Z,46
2018-12-04T07:57:44.118Z,46.9
2018-12-04T07:58:44.198Z,47.7
2018-12-04T07:59:44.112Z,47.8
2018-12-04T08:00:44.192Z,47.8
2018-12-04T08:01:44.168Z,47.7
2018-12-04T08:02:44.172Z,47.3
2018-12-04T08:03:44.133Z,47.4
2018-12-04T08:04:44.175Z,47.7
2018-12-04T08:05:44.120Z,47.3
2018-12-04T08:06:44.116Z,47.1
2018-12-04T08:07:44.120Z,47.1
2018-12-04T08:08:44.120Z,47.6
2018-12-04T08:09:44.170Z,48.1
2018-12-04T08:10:44.114Z,47.7
2018-12-04T08:11:44.124Z,47.9
2018-12-04T08:12:44.187Z,47.9
2018-12-04T08:13:44.112Z,47.9
2018-12-04T08:14:44.128Z,47.4
2018-12-04T08:15:44.170Z,47.4
2018-12-04T08:16:44.193Z,46.7
2018-12-04T08:17:44.109Z,46.4
2018-12-04T08:18:44.120Z,46.3
2018-12-04T08:19:44.121Z,45.7
2018-12-04T08:20:44.168Z,44.7
2018-12-04T08:21:44.094Z,44.1
2018-12-04T08:22:44.117Z,43.5
2018-12-04T08:23:44.118Z,42.9
2018-12-04T08:24:44.172Z,42.5
2018-12-04T08:25:44.113Z,42.2
2018-12-04T08:26:44.166Z,41.7
2018-12-04T08:27:44.109Z,41.3
2018-12-04T08:28:44.185Z,41.4
2018-12-04T08:29:44.110Z,41.3
2018-12-04T08:30:44.110Z,40.6
2018-12-04T08:31:44.093Z,40.6
2018-12-04T08:32:44.202Z,40.5
2018-12-04T08:33:44.111Z,40.8
2018-12-04T08:34:44.104Z,39.8
2018-12-04T08:35:44.101Z,38.7
2018-12-04T08:36:44.122Z,38.3
2018-12-04T08:37:44.143Z,38.3
2018-12-04T08:38:44.107Z,38.2
2018-12-04T08:39:44.172Z,38.6
2018-12-04T08:40:44.114Z,38
2018-12-04T08:41:44.191Z,37.9
2018-12-04T08:42:44.102Z,37.8
2018-12-04T08:43:44.160Z,37.4
2018-12-04T08:44:44.100Z,37.1
2018-12-04T08:45:44.101Z,36.4
2018-12-04T08:46:44.241Z,36.2
2018-12-04T08:47:44.091Z,35.7
2018-12-04T08:48:44.104Z,35.3
2018-12-04T08:49:44.100Z,34.9
2018-12-04T08:50:44.169Z,34.6
2018-12-04T08:51:44.134Z,34.9
2018-12-04T08:52:44.124Z,36.7
2018-12-04T08:53:44.099Z,37.3
2018-12-04T08:54:44.178Z,37.1
2018-12-04T08:55:44.100Z,36.6
2018-12-04T08:56:44.180Z,36
2018-12-04T08:57:44.099Z,35.9
2018-12-04T08:58:44.087Z,35.7
2018-12-04T08:59:44.106Z,35.8
2018-12-04T09:00:44.181Z,36.2
2018-12-04T09:01:44.171Z,35.7
2018-12-04T09:02:44.109Z,36
2018-12-04T09:03:44.171Z,36
2018-12-04T09:04:44.100Z,36
2018-12-04T09:05:44.086Z,36.6
2018-12-04T09:06:44.104Z,37
2018-12-04T09:07:44.095Z,37.7
2018-12-04T09:08:44.174Z,37.7
2018-12-04T09:09:44.082Z,37.6
2018-12-04T09:10:44.094Z,37.9
2018-12-04T09:11:44.099Z,37.1
2018-12-04T09:12:44.101Z,38.1
2018-12-04T09:13:44.158Z,39
2018-12-04T09:14:44.095Z,40.1
2018-12-04T09:15:44.144Z,40.4
2018-12-04T09:16:44.175Z,40.6
2018-12-04T09:17:44.106Z,40.8
2018-12-04T09:18:44.108Z,41.1
2018-12-04T09:19:45.823Z,40.7
2018-12-04T09:20:44.105Z,41.4
2018-12-04T09:21:44.147Z,42.6
2018-12-04T09:22:44.121Z,43.5
2018-12-04T09:23:44.110Z,43.7
2018-12-04T09:24:44.242Z,44
2018-12-04T09:25:44.221Z,44
2018-12-04T09:26:44.170Z,44.2
2018-12-04T09:27:44.091Z,45
2018-12-04T09:28:44.113Z,44.8
2018-12-04T09:29:44.138Z,44.9
2018-12-04T09:30:44.727Z,44.9
2018-12-04T09:31:44.075Z,44.9
2018-12-04T09:32:44.110Z,45.4
2018-12-04T09:33:44.197Z,45.6
2018-12-04T09:34:44.100Z,46.5
2018-12-04T09:35:44.096Z,46.7
2018-12-04T09:36:44.086Z,47.1
2018-12-04T09:37:44.160Z,47
2018-12-04T09:38:44.127Z,47.9
2018-12-04T09:39:44.104Z,49.2
2018-12-04T09:40:44.089Z,49.8
2018-12-04T09:41:44.164Z,48.7
2018-12-04T09:42:44.124Z,47.8
2018-12-04T09:43:44.186Z,47.3
2018-12-04T09:44:44.099Z,47.8
2018-12-04T09:45:44.095Z,48.2
2018-12-04T09:46:44.099Z,48.5
2018-12-04T09:47:44.094Z,48.6
2018-12-04T09:48:44.164Z,48
2018-12-04T09:49:44.116Z,48
2018-12-04T09:50:44.216Z,48.2
2018-12-04T09:51:44.093Z,47.9
2018-12-04T09:52:44.103Z,47
2018-12-04T09:53:44.078Z,46.7
2018-12-04T09:54:44.092Z,45.9
2018-12-04T09:55:44.170Z,45.6
2018-12-04T09:56:44.091Z,45
2018-12-04T09:57:44.165Z,44.8
2018-12-04T09:58:44.081Z,44.7
2018-12-04T09:59:44.082Z,44.8
2018-12-04T10:00:44.095Z,44.5
2018-12-04T10:01:44.215Z,43.8
2018-12-04T10:02:44.088Z,44.3
2018-12-04T10:03:44.097Z,44.5
2018-12-04T10:04:44.082Z,44.5
2018-12-04T10:05:44.091Z,45.1
2018-12-04T10:06:44.149Z,46.5
2018-12-04T10:07:44.165Z,47
2018-12-04T10:08:44.091Z,47
2018-12-04T10:09:44.140Z,46.7
2018-12-04T10:10:44.098Z,46.6
2018-12-04T10:11:44.099Z,46.5
2018-12-04T10:12:44.106Z,46.3
2018-12-04T10:13:44.099Z,45.7
2018-12-04T10:14:44.151Z,45
2018-12-04T10:15:44.150Z,44.7
2018-12-04T10:16:44.096Z,44.8
2018-12-04T10:17:44.217Z,45.1
2018-12-04T10:18:47.623Z,46.3
2018-12-04T10:19:44.091Z,47.4
2018-12-04T10:20:44.080Z,47.3
2018-12-04T10:21:44.094Z,47.6
2018-12-04T10:22:44.165Z,47.3
2018-12-04T10:23:44.098Z,47.3
2018-12-04T10:24:44.098Z,48.5
2018-12-04T10:25:44.097Z,49.6
2018-12-04T10:26:44.081Z,49.8
2018-12-04T10:27:44.169Z,50
2018-12-04T10:28:44.099Z,49.9
2018-12-04T10:29:44.090Z,51.1
2018-12-04T10:30:44.100Z,52.1
2018-12-04T10:31:44.547Z,52.3
2018-12-04T10:32:44.166Z,53.5
2018-12-04T10:33:44.077Z,55
2018-12-04T10:34:44.093Z,56.3
2018-12-04T10:35:44.090Z,55.7
2018-12-04T10:36:45.606Z,54.9
2018-12-04T10:37:44.083Z,53.8
2018-12-04T10:38:44.090Z,53.3
2018-12-04T10:39:44.100Z,53.1
2018-12-04T10:40:44.086Z,53.4
2018-12-04T10:41:44.173Z,54
2018-12-04T10:42:44.090Z,54.6
2018-12-04T10:43:44.422Z,54.5
2018-12-04T10:44:44.537Z,55.2
2018-12-04T10:45:44.831Z,55.2
2018-12-04T10:46:47.711Z,54.4
2018-12-04T10:47:46.016Z,54.1
2018-12-04T10:48:44.448Z,53.5
2018-12-04T10:49:46.734Z,52.2
2018-12-04T10:50:44.486Z,51.5
2018-12-04T10:51:44.078Z,50.8
2018-12-04T10:52:44.395Z,50.8
2018-12-04T10:53:46.795Z,51.5
2018-12-04T10:54:44.464Z,52.3
2018-12-04T10:55:44.585Z,52.5
2018-12-04T10:56:44.844Z,52.8
2018-12-04T10:57:44.272Z,53.6
2018-12-04T10:58:44.857Z,53.2
2018-12-04T10:59:47.518Z,53.9
2018-12-04T11:00:44.489Z,53.3
2018-12-04T11:01:45.481Z,53.8
2018-12-04T11:02:44.816Z,54.1
2018-12-04T11:03:44.153Z,54
2018-12-04T11:04:44.265Z,54.3
2018-12-04T11:05:45.476Z,54.3
2018-12-04T11:06:45.377Z,53.9
2018-12-04T11:07:46.494Z,52.9
2018-12-04T11:08:44.254Z,53.3
2018-12-04T11:09:45.923Z,53.4
2018-12-04T11:10:44.453Z,52.6
2018-12-04T11:11:47.097Z,52.6
2018-12-04T11:12:44.521Z,52.9
2018-12-04T11:13:44.333Z,52.9
2018-12-04T11:14:51.183Z,5.6
2018-12-04T11:15:48.909Z,10.2
2018-12-04T11:16:48.230Z,13.8
2018-12-04T11:17:51.157Z,16.9
2018-12-04T11:19:51.054Z,4
2018-12-04T11:20:52.789Z,7.8
2018-12-04T11:21:51.900Z,11.2
2018-12-04T11:22:51.018Z,14.6
2018-12-04T11:23:51.765Z,18
2018-12-04T11:25:55.820Z,3.8
2018-12-04T11:26:54.617Z,7.6
2018-12-04T11:27:55.339Z,11.5
2018-12-04T11:28:55.412Z,14.4
2018-12-04T11:29:55.493Z,17.5
2018-12-04T11:30:55.865Z,20.6
2018-12-04T11:31:55.275Z,23.4
2018-12-04T11:32:56.021Z,25.6
2018-12-04T11:33:55.129Z,28.5
2018-12-04T11:34:54.833Z,31.3
2018-12-04T11:35:54.524Z,33.8
2018-12-04T11:36:54.530Z,35.6
2018-12-04T11:37:54.453Z,37
2018-12-04T11:38:54.475Z,39
2018-12-04T11:39:54.539Z,40.4
2018-12-04T11:40:54.478Z,41.2
2018-12-04T11:41:54.529Z,42.1
2018-12-04T11:42:54.520Z,42.9
2018-12-04T11:43:55.193Z,43.5
2018-12-04T11:44:55.044Z,43.9
2018-12-04T11:45:55.188Z,44
2018-12-04T11:46:55.235Z,43.9
2018-12-04T11:47:55.298Z,44.1
2018-12-04T11:48:55.629Z,44
2018-12-04T11:49:55.022Z,44.3
2018-12-04T11:51:00.108Z,44.6
2018-12-04T11:51:55.783Z,45.3
2018-12-04T11:52:55.654Z,45.9
2018-12-04T11:53:54.617Z,46.3
2018-12-04T11:54:54.571Z,46.4
2018-12-04T11:55:54.486Z,46.8
2018-12-04T11:56:56.256Z,47.5
2018-12-04T11:57:55.516Z,47.1
2018-12-04T11:58:55.151Z,46.7
2018-12-04T11:59:55.675Z,46.2
2018-12-04T12:00:54.740Z,46.1
2018-12-04T12:01:54.989Z,46.1
2018-12-04T12:02:57.043Z,46.1
2018-12-04T12:03:55.524Z,47
2018-12-04T12:04:54.570Z,46.6
2018-12-04T12:05:54.836Z,46.8
2018-12-04T12:06:57.253Z,47
2018-12-04T12:07:56.933Z,47.2
2018-12-04T12:08:54.725Z,46.3
2018-12-04T12:09:54.504Z,46.6
2018-12-04T12:10:54.535Z,47.1
2018-12-04T12:13:01.401Z,4.9
2018-12-04T12:14:00.536Z,8.8
2018-12-04T12:15:00.546Z,12.4
2018-12-04T12:16:00.605Z,14.9
2018-12-04T12:17:00.551Z,17.1
2018-12-04T12:18:00.597Z,19.1
2018-12-04T12:19:00.537Z,21.6
2018-12-04T12:20:00.550Z,24
2018-12-04T12:21:00.519Z,27.2
2018-12-04T12:22:00.543Z,30.2
2018-12-04T12:23:00.618Z,32.2
2018-12-04T12:24:01.835Z,34.5
2018-12-04T12:25:02.127Z,35.2
2018-12-04T12:26:00.994Z,37
2018-12-04T12:27:00.639Z,40.2
2018-12-04T12:28:01.492Z,42.1
2018-12-04T12:29:00.927Z,43.4
2018-12-04T12:30:00.596Z,44.1
2018-12-04T12:31:10.051Z,5.3
2018-12-04T12:32:08.430Z,9.8
2018-12-04T12:33:06.099Z,13.4
2018-12-04T12:34:06.061Z,17
2018-12-04T12:35:05.689Z,20
2018-12-04T12:36:06.053Z,22.4
2018-12-04T12:37:06.550Z,25.9
2018-12-04T12:38:05.798Z,28
2018-12-04T12:39:06.384Z,30.6
2018-12-04T12:40:05.504Z,31.7
2018-12-04T12:41:06.009Z,33
2018-12-04T12:42:06.506Z,34.9
2018-12-04T12:43:06.266Z,36.5
2018-12-04T12:44:07.717Z,37.5
2018-12-04T12:45:05.580Z,39.6
2018-12-04T12:46:06.230Z,42.2
2018-12-04T12:47:05.711Z,43.6
2018-12-04T12:48:08.444Z,45
2018-12-04T12:49:05.333Z,46.6
2018-12-04T12:50:05.638Z,48.4
2018-12-04T12:51:05.372Z,48.4
2018-12-04T12:52:05.507Z,48.9
2018-12-04T12:53:06.241Z,48
2018-12-04T12:54:06.735Z,46.6
2018-12-04T12:55:05.833Z,45.5
2018-12-04T12:56:05.729Z,44.6
2018-12-04T12:57:05.421Z,43.1
2018-12-04T12:58:06.606Z,41.9
2018-12-04T12:59:05.337Z,40.9
2018-12-04T13:00:05.907Z,39.8
2018-12-04T13:02:07.691Z,2.8
2018-12-04T13:03:09.637Z,5.5
2018-12-04T13:04:07.528Z,7.7
2018-12-04T13:05:07.538Z,10.2
2018-12-04T13:06:07.537Z,13.2
2018-12-04T13:07:07.681Z,15.7
2018-12-04T13:08:07.648Z,17.4
2018-12-04T13:09:07.570Z,19.4
2018-12-04T13:10:07.536Z,23.4
2018-12-04T13:11:07.562Z,25.6
2018-12-04T13:12:07.586Z,26.6
2018-12-04T13:13:08.716Z,28.1
2018-12-04T13:14:07.654Z,30.2
2018-12-04T13:15:07.538Z,31.5
2018-12-04T13:16:07.595Z,33.1
2018-12-04T13:17:07.555Z,35.8
2018-12-04T13:18:08.528Z,38
2018-12-04T13:19:10.386Z,39.2
2018-12-04T13:20:07.898Z,39.1
2018-12-04T13:21:07.583Z,38.1
2018-12-04T13:22:07.550Z,37.1
2018-12-04T13:23:07.536Z,35.8
2018-12-04T13:24:07.528Z,34.5
2018-12-04T13:25:07.537Z,33.2
2018-12-04T13:26:07.578Z,32.7
2018-12-04T13:27:07.534Z,31.9
2018-12-04T13:28:07.616Z,30.8
2018-12-04T13:29:07.525Z,29.9
2018-12-04T13:30:07.535Z,29.5
2018-12-04T13:31:07.607Z,29.1
2018-12-04T13:32:07.523Z,28.3
2018-12-04T13:33:07.547Z,27.7
2018-12-04T13:34:07.526Z,27.3
2018-12-04T13:35:07.545Z,26.4
2018-12-04T13:36:07.604Z,25.5
2018-12-04T13:37:07.510Z,24.8
2018-12-04T13:38:07.534Z,24.3
2018-12-04T13:39:07.645Z,23.8
2018-12-04T13:40:08.613Z,23.2
2018-12-04T13:41:07.544Z,22.5
2018-12-04T13:42:07.561Z,22.2
2018-12-04T13:43:07.593Z,21.5